.
WxDataArchive / Data Records for 2015-12-31
2015-12-30 December 2015 2016-01-01

Data Records for Thursday, 31 December 2015

Time	Temp	Chill	HIndex	Humid	Dewpt	 Wind 	HiWind	WindDir	Rain 	Barom
-----	----	-----	------	-----	-----	------	------	-------	-----	-----
00:00	30.0	30.0	30.0	76	23.4	1	3	270	0.00	30.217 
00:05	30.0	30.0	30.0	76	23.4	1	3	270	0.00	30.217 
00:10	30.0	30.0	30.0	76	23.4	1	3	270	0.00	30.217 
00:15	30.1	30.1	30.1	76	23.5	0	2	270	0.00	30.215 
00:20	30.1	30.1	30.1	77	23.8	0	2	270	0.00	30.215 
00:25	30.1	30.1	30.1	77	23.8	1	3	270	0.00	30.215 
00:30	30.0	30.0	30.0	77	23.7	1	4	270	0.00	30.214 
00:35	30.0	30.0	30.0	77	23.7	1	4	270	0.00	30.214 
00:40	29.8	29.8	29.8	77	23.5	0	2	270	0.00	30.214 
00:45	29.8	29.8	29.8	77	23.5	0	3	270	0.00	30.213 
00:50	29.8	29.8	29.8	77	23.5	0	2	270	0.00	30.213 
00:55	29.7	29.7	29.7	77	23.4	1	4	248	0.00	30.213 
01:00	29.7	29.7	29.7	77	23.4	0	2	248	0.00	30.209 
01:05	29.7	29.7	29.7	77	23.4	1	2	248	0.00	30.209 
01:10	29.7	29.7	29.7	77	23.4	0	3	248	0.00	30.209 
01:15	29.5	29.5	29.5	77	23.2	0	2	248	0.00	30.200 
01:20	29.5	29.5	29.5	77	23.2	0	2	248	0.00	30.200 
01:25	29.5	29.5	29.5	77	23.2	0	3	248	0.00	30.200 
01:30	29.5	29.5	29.5	77	23.2	0	2	248	0.00	30.195 
01:35	29.5	29.5	29.5	77	23.2	0	3	248	0.00	30.195 
01:40	29.5	29.5	29.5	77	23.2	0	2	248	0.00	30.195 
01:45	29.5	29.5	29.5	77	23.2	1	2	248	0.00	30.192 
01:50	29.5	29.5	29.5	77	23.2	0	0	---	0.00	30.192 
01:55	29.5	29.5	29.5	78	23.5	1	3	292	0.00	30.192 
02:00	29.4	29.4	29.4	77	23.1	0	2	292	0.00	30.193 
02:05	29.4	29.4	29.4	77	23.1	1	3	292	0.00	30.193 
02:10	29.4	29.4	29.4	77	23.1	1	4	292	0.00	30.193 
02:15	29.4	29.4	29.4	77	23.1	1	3	270	0.00	30.200 
02:20	29.3	29.3	29.3	77	23.0	1	4	270	0.00	30.200 
02:25	29.1	29.1	29.1	77	22.8	1	3	270	0.00	30.200 
02:30	29.1	29.1	29.1	77	22.8	0	2	270	0.00	30.203 
02:35	29.1	29.1	29.1	77	22.8	1	3	270	0.00	30.203 
02:40	29.1	29.1	29.1	77	22.8	1	3	270	0.00	30.203 
02:45	29.1	29.1	29.1	77	22.8	1	3	270	0.00	30.212 
02:50	29.1	29.1	29.1	77	22.8	1	4	270	0.00	30.212 
02:55	29.1	29.1	29.1	77	22.8	1	2	270	0.00	30.212 
03:00	29.1	29.1	29.1	77	22.8	0	1	270	0.00	30.219 
03:05	29.1	29.1	29.1	78	23.1	1	3	270	0.00	30.219 
03:10	29.1	29.1	29.1	77	22.8	1	4	270	0.00	30.219 
03:15	29.1	29.1	29.1	77	22.8	0	2	270	0.00	30.225 
03:20	29.1	29.1	29.1	78	23.1	0	2	270	0.00	30.225 
03:25	29.1	29.1	29.1	78	23.1	1	3	270	0.00	30.225 
03:30	29.1	29.1	29.1	78	23.1	0	2	270	0.00	30.228 
03:35	29.1	29.1	29.1	78	23.1	0	2	270	0.00	30.228 
03:40	29.1	29.1	29.1	78	23.1	0	2	270	0.00	30.228 
03:45	29.1	29.1	29.1	78	23.1	1	2	270	0.00	30.232 
03:50	29.1	29.1	29.1	78	23.1	0	1	270	0.00	30.232 
03:55	29.1	29.1	29.1	78	23.1	1	2	270	0.00	30.232 
04:00	29.0	29.0	29.0	78	23.0	1	3	270	0.00	30.234 
04:05	29.0	29.0	29.0	78	23.0	0	2	270	0.00	30.234 
04:10	29.1	29.1	29.1	78	23.1	0	2	270	0.00	30.234 
04:15	29.0	29.0	29.0	78	23.0	1	3	270	0.00	30.234 
04:20	29.0	29.0	29.0	77	22.7	1	3	270	0.00	30.234 
04:25	29.0	29.0	29.0	77	22.7	1	3	270	0.00	30.234 
04:30	29.0	29.0	29.0	77	22.7	1	3	270	0.00	30.235 
04:35	29.0	29.0	29.0	77	22.7	1	3	270	0.00	30.235 
04:40	28.8	28.8	28.8	77	22.5	0	2	270	0.00	30.235 
04:45	28.8	28.8	28.8	77	22.5	1	3	270	0.00	30.234 
04:50	28.8	28.8	28.8	77	22.5	1	3	270	0.00	30.234 
04:55	28.8	28.8	28.8	77	22.5	1	2	270	0.00	30.234 
05:00	28.8	28.8	28.8	77	22.5	0	2	270	0.00	30.238 
05:05	29.0	29.0	29.0	78	23.0	1	2	270	0.00	30.238 
05:10	29.0	29.0	29.0	78	23.0	0	3	270	0.00	30.238 
05:15	29.0	29.0	29.0	78	23.0	1	3	270	0.00	30.242 
05:20	29.0	29.0	29.0	78	23.0	0	2	270	0.00	30.242 
05:25	29.0	29.0	29.0	78	23.0	1	2	270	0.00	30.242 
05:30	29.0	29.0	29.0	78	23.0	0	2	270	0.00	30.246 
05:35	29.0	29.0	29.0	78	23.0	0	2	270	0.00	30.246 
05:40	29.0	29.0	29.0	78	23.0	0	1	270	0.00	30.246 
05:45	29.0	29.0	29.0	78	23.0	0	3	270	0.00	30.241 
05:50	29.0	29.0	29.0	78	23.0	0	1	270	0.00	30.241 
05:55	29.0	29.0	29.0	78	23.0	1	3	270	0.00	30.241 
06:00	29.0	29.0	29.0	78	23.0	1	3	270	0.00	30.237 
06:05	29.1	29.1	29.1	79	23.4	0	2	270	0.00	30.237 
06:10	29.1	29.1	29.1	79	23.4	0	2	270	0.00	30.237 
06:15	29.1	29.1	29.1	79	23.4	0	1	270	0.00	30.237 
06:20	29.1	29.1	29.1	79	23.4	0	1	270	0.00	30.237 
06:25	29.1	29.1	29.1	80	23.7	0	1	270	0.00	30.237 
06:30	29.1	29.1	29.1	80	23.7	0	2	270	0.00	30.242 
06:35	29.1	29.1	29.1	80	23.7	0	1	270	0.00	30.242 
06:40	29.1	29.1	29.1	80	23.7	0	2	270	0.00	30.242 
06:45	29.1	29.1	29.1	80	23.7	0	2	270	0.00	30.247 
06:50	29.1	29.1	29.1	80	23.7	1	2	270	0.00	30.247 
06:55	29.1	29.1	29.1	80	23.7	1	3	270	0.00	30.247 
07:00	29.1	29.1	29.1	80	23.7	0	2	270	0.00	30.252 
07:05	29.0	29.0	29.0	80	23.6	1	3	270	0.00	30.252 
07:10	29.0	29.0	29.0	80	23.6	0	2	270	0.00	30.252 
07:15	29.0	29.0	29.0	80	23.6	0	2	270	0.00	30.257 
07:20	29.1	29.1	29.1	80	23.7	1	3	270	0.00	30.257 
07:25	29.1	29.1	29.1	80	23.7	0	1	270	0.00	30.257 
07:30	29.1	29.1	29.1	80	23.7	0	1	270	0.00	30.263 
07:35	29.1	29.1	29.1	80	23.7	0	2	270	0.00	30.263 
07:40	29.1	29.1	29.1	80	23.7	1	3	270	0.00	30.263 
07:45	29.0	29.0	29.0	80	23.6	0	2	270	0.00	30.263 
07:50	29.0	29.0	29.0	80	23.6	0	2	270	0.00	30.263 
07:55	29.0	29.0	29.0	80	23.6	0	1	270	0.00	30.263 
08:00	29.0	29.0	29.0	80	23.6	0	2	270	0.00	30.263 
08:05	29.0	29.0	29.0	80	23.6	1	3	270	0.00	30.263 
08:10	28.8	28.8	28.8	80	23.4	1	4	270	0.00	30.263 
08:15	28.8	28.8	28.8	80	23.4	0	3	270	0.00	30.265 
08:20	28.8	28.8	28.8	80	23.4	1	2	270	0.00	30.265 
08:25	28.8	28.8	28.8	79	23.1	1	4	270	0.00	30.265 
08:30	28.7	28.7	28.7	79	23.0	1	3	270	0.00	30.263 
08:35	28.7	28.7	28.7	79	23.0	0	2	270	0.00	30.263 
08:40	28.7	28.7	28.7	79	23.0	0	2	270	0.00	30.263 
08:45	28.7	28.7	28.7	79	23.0	0	1	270	0.00	30.263 
08:50	28.7	28.7	28.7	79	23.0	0	3	270	0.00	30.263 
08:55	28.7	28.7	28.7	79	23.0	0	3	270	0.00	30.263 
09:00	28.7	28.7	28.7	79	23.0	1	3	270	0.00	30.263 
09:05	28.7	28.7	28.7	79	23.0	1	3	270	0.00	30.263 
09:10	28.7	28.7	28.7	79	23.0	0	3	270	0.00	30.263 
09:15	28.5	28.5	28.5	79	22.8	1	3	270	0.00	30.268 
09:20	28.5	28.5	28.5	80	23.1	0	2	270	0.00	30.268 
09:25	28.4	28.4	28.4	80	23.0	1	4	270	0.00	30.268 
09:30	28.4	28.4	28.4	80	23.0	0	2	315	0.00	30.273 
09:35	28.4	28.4	28.4	80	23.0	0	3	315	0.00	30.273 
09:40	28.4	28.4	28.4	80	23.0	0	2	315	0.00	30.273 
09:45	28.4	28.4	28.4	80	23.0	2	4	292	0.00	30.282 
09:50	28.2	28.2	28.2	80	22.8	2	4	292	0.00	30.282 
09:55	28.4	28.4	28.4	80	23.0	1	3	292	0.00	30.282 
10:00	28.4	28.4	28.4	80	23.0	0	2	292	0.00	30.284 
10:05	28.4	28.4	28.4	81	23.3	0	2	292	0.00	30.284 
10:10	28.4	28.4	28.4	80	23.0	1	5	248	0.00	30.284 
10:15	28.2	28.2	28.2	80	22.8	1	4	248	0.00	30.295 
10:20	28.2	28.2	28.2	80	22.8	0	2	248	0.00	30.295 
10:25	28.2	28.2	28.2	79	22.5	1	4	248	0.00	30.295 
10:30	28.1	28.1	28.1	79	22.4	1	3	248	0.00	30.296 
10:35	28.1	28.1	28.1	79	22.4	1	4	248	0.00	30.296 
10:40	28.1	28.1	28.1	79	22.4	1	4	248	0.00	30.296 
10:45	28.2	28.2	28.2	79	22.5	2	4	292	0.00	30.297 
10:50	28.2	28.2	28.2	79	22.5	1	3	292	0.00	30.297 
10:55	28.2	28.2	28.2	79	22.5	1	3	292	0.00	30.297 
11:00	28.4	28.4	28.4	79	22.7	0	2	292	0.00	30.301 
11:05	28.5	28.5	28.5	79	22.8	0	2	292	0.00	30.301 
11:10	28.7	28.7	28.7	78	22.7	0	3	292	0.00	30.301 
11:15	28.8	28.8	28.8	78	22.8	0	3	292	0.00	30.295 
11:20	29.0	29.0	29.0	76	22.4	1	3	292	0.00	30.295 
11:25	29.1	29.1	29.1	75	22.2	1	4	315	0.00	30.295 
11:30	29.3	29.3	29.3	74	22.1	1	4	292	0.00	30.283 
11:35	29.4	29.4	29.4	73	21.8	1	3	270	0.00	30.283 
11:40	29.5	29.5	29.5	73	21.9	1	3	270	0.00	30.283 
11:45	29.8	29.8	29.8	72	21.9	0	2	270	0.00	30.274 
11:50	30.0	30.0	30.0	72	22.1	0	3	270	0.00	30.274 
11:55	30.0	30.0	30.0	71	21.8	2	4	270	0.00	30.274 
12:00	30.0	30.0	30.0	71	21.8	1	4	270	0.00	30.265 
12:05	30.1	30.1	30.1	71	21.9	1	2	270	0.00	30.265 
12:10	30.1	30.1	30.1	71	21.9	2	5	270	0.00	30.265 
12:15	30.1	30.1	30.1	71	21.9	1	3	270	0.00	30.253 
12:20	30.3	30.3	30.3	72	22.4	1	3	270	0.00	30.253 
12:25	30.4	30.4	30.4	72	22.5	2	5	270	0.00	30.253 
12:30	30.4	30.4	30.4	71	22.1	2	4	292	0.00	30.245 
12:35	30.6	30.6	30.6	71	22.3	2	4	292	0.00	30.245 
12:40	30.6	30.6	30.6	71	22.3	1	4	292	0.00	30.245 
12:45	30.7	30.7	30.7	71	22.4	1	3	292	0.00	30.243 
12:50	30.7	30.7	30.7	71	22.4	2	4	270	0.00	30.243 
12:55	30.7	30.7	30.7	71	22.4	2	5	270	0.00	30.243 
13:00	30.9	30.9	30.9	72	23.0	1	4	270	0.00	30.241 
13:05	30.9	30.9	30.9	72	23.0	1	4	270	0.00	30.241 
13:10	31.0	31.0	31.0	72	23.1	1	3	270	0.00	30.241 
13:15	30.9	30.9	30.9	72	23.0	2	5	248	0.00	30.239 
13:20	30.9	30.9	30.9	72	23.0	2	6	248	0.00	30.239 
13:25	31.0	31.0	31.0	72	23.1	2	4	248	0.00	30.239 
13:30	31.0	31.0	31.0	72	23.1	1	3	248	0.00	30.233 
13:35	30.9	30.9	30.9	72	23.0	2	9	292	0.00	30.233 
13:40	31.0	31.0	31.0	72	23.1	1	6	270	0.00	30.233 
13:45	30.9	30.9	30.9	72	23.0	1	5	248	0.00	30.233 
13:50	31.0	31.0	31.0	73	23.4	1	4	248	0.00	30.233 
13:55	31.2	31.2	31.2	72	23.2	1	3	248	0.00	30.233 
14:00	31.3	31.3	31.3	72	23.3	1	4	248	0.00	30.233 
14:05	31.3	31.3	31.3	72	23.3	1	3	248	0.00	30.233 
14:10	31.3	31.3	31.3	72	23.3	1	4	248	0.00	30.233 
14:15	31.3	31.3	31.3	72	23.3	1	4	248	0.00	30.233 
14:20	31.3	31.3	31.3	72	23.3	2	5	248	0.00	30.233 
14:25	31.3	31.3	31.3	72	23.3	1	4	270	0.00	30.233 
14:30	31.5	31.5	31.5	72	23.5	1	5	248	0.00	30.234 
14:35	31.5	31.5	31.5	72	23.5	1	5	225	0.00	30.234 
14:40	31.5	31.5	31.5	72	23.5	1	3	225	0.00	30.234 
14:45	31.5	31.5	31.5	73	23.9	1	4	248	0.00	30.236 
14:50	31.5	31.5	31.5	73	23.9	1	4	248	0.00	30.236 
14:55	31.5	31.5	31.5	73	23.9	1	3	248	0.00	30.236 
15:00	31.3	31.3	31.3	73	23.7	1	3	248	0.00	30.234 
15:05	31.3	31.3	31.3	73	23.7	1	4	248	0.00	30.234 
15:10	31.3	31.3	31.3	71	23.0	2	4	248	0.00	30.234 
15:15	31.5	31.5	31.5	71	23.2	1	4	248	0.00	30.233 
15:20	31.5	31.5	31.5	70	22.9	1	4	270	0.00	30.233 
15:25	31.5	31.5	31.5	71	23.2	1	3	270	0.00	30.233 
15:30	31.5	31.5	31.5	71	23.2	1	3	270	0.00	30.234 
15:35	31.3	31.3	31.3	71	23.0	2	4	270	0.00	30.234 
15:40	31.2	31.2	31.2	71	22.9	2	4	270	0.00	30.234 
15:45	31.0	31.0	31.0	70	22.4	2	6	270	0.00	30.236 
15:50	31.2	31.2	31.2	70	22.6	2	5	248	0.00	30.236 
15:55	31.2	31.2	31.2	70	22.6	1	3	248	0.00	30.236 
16:00	31.2	31.2	31.2	70	22.6	1	6	292	0.00	30.236 
16:05	31.2	31.2	31.2	70	22.6	1	3	292	0.00	30.236 
16:10	31.2	31.2	31.2	71	22.9	1	5	315	0.00	30.236 
16:15	31.0	31.0	31.0	71	22.7	2	4	270	0.00	30.246 
16:20	31.0	31.0	31.0	72	23.1	1	3	248	0.00	30.246 
16:25	31.0	31.0	31.0	72	23.1	1	3	248	0.00	30.246 
16:30	30.9	30.9	30.9	72	23.0	2	4	248	0.00	30.248 
16:35	30.9	30.9	30.9	72	23.0	1	4	248	0.00	30.248 
16:40	30.7	30.7	30.7	72	22.8	2	4	248	0.00	30.248 
16:45	30.7	30.7	30.7	72	22.8	2	4	248	0.00	30.244 
16:50	30.7	30.7	30.7	72	22.8	2	5	270	0.00	30.244 
16:55	30.7	30.7	30.7	72	22.8	2	6	315	0.00	30.244 
17:00	30.7	30.7	30.7	72	22.8	0	3	292	0.00	30.243 
17:05	30.7	30.7	30.7	72	22.8	2	5	292	0.00	30.243 
17:10	30.6	30.6	30.6	72	22.7	2	4	270	0.00	30.243 
17:15	30.6	30.6	30.6	72	22.7	1	3	248	0.00	30.246 
17:20	30.6	30.6	30.6	72	22.7	1	5	248	0.00	30.246 
17:25	30.6	30.6	30.6	71	22.3	2	4	292	0.00	30.246 
17:30	30.6	30.6	30.6	70	22.0	2	4	270	0.00	30.248 
17:35	30.6	30.6	30.6	70	22.0	2	4	270	0.00	30.248 
17:40	30.6	30.6	30.6	71	22.3	1	4	270	0.00	30.248 
17:45	30.6	30.6	30.6	72	22.7	1	3	270	0.00	30.257 
17:50	30.4	30.4	30.4	72	22.5	2	4	270	0.00	30.257 
17:55	30.4	30.4	30.4	72	22.5	1	3	270	0.00	30.257 
18:00	30.3	30.3	30.3	72	22.4	1	2	270	0.00	30.259 
18:05	30.3	30.3	30.3	73	22.7	1	4	270	0.00	30.259 
18:10	30.1	30.1	30.1	73	22.5	2	5	270	0.00	30.259 
18:15	30.0	30.0	30.0	73	22.4	2	5	270	0.00	30.256 
18:20	30.0	30.0	30.0	73	22.4	1	3	248	0.00	30.256 
18:25	30.0	30.0	30.0	74	22.7	2	5	248	0.00	30.256 
18:30	29.8	29.8	29.8	74	22.5	1	3	270	0.00	30.264 
18:35	29.8	29.8	29.8	74	22.5	2	4	270	0.00	30.264 
18:40	29.7	29.7	29.7	73	22.1	2	4	248	0.00	30.264 
18:45	29.5	29.5	29.5	73	21.9	2	5	270	0.00	30.269 
18:50	29.5	29.5	29.5	73	21.9	2	4	270	0.00	30.269 
18:55	29.5	29.5	29.5	73	21.9	1	4	270	0.00	30.269 
19:00	29.4	29.4	29.4	73	21.8	2	4	270	0.00	30.273 
19:05	29.4	29.4	29.4	74	22.2	1	4	270	0.00	30.273 
19:10	29.3	29.3	29.3	73	21.7	3	5	270	0.00	30.273 
19:15	29.1	29.1	29.1	73	21.5	3	4	270	0.00	30.275 
19:20	29.0	29.0	29.0	73	21.4	2	5	270	0.00	30.275 
19:25	28.8	28.8	28.8	73	21.3	2	4	270	0.00	30.275 
19:30	28.7	28.7	28.7	73	21.2	2	4	270	0.00	30.271 
19:35	28.7	28.7	28.7	73	21.2	2	5	270	0.00	30.271 
19:40	28.7	28.7	28.7	73	21.2	1	4	270	0.00	30.271 
19:45	28.7	28.7	28.7	73	21.2	2	5	270	0.00	30.276 
19:50	28.7	28.7	28.7	72	20.8	3	5	270	0.00	30.276 
19:55	28.7	28.7	28.7	72	20.8	2	5	270	0.00	30.276 
20:00	28.7	28.7	28.7	72	20.8	2	6	292	0.00	30.275 
20:05	28.7	28.7	28.7	72	20.8	1	3	292	0.00	30.275 
20:10	28.7	28.7	28.7	72	20.8	0	3	292	0.00	30.275 
20:15	28.8	28.8	28.8	73	21.3	0	2	292	0.00	30.272 
20:20	28.8	28.8	28.8	73	21.3	0	1	292	0.00	30.272 
20:25	28.8	28.8	28.8	73	21.3	1	3	292	0.00	30.272 
20:30	28.8	28.8	28.8	74	21.6	1	4	248	0.00	30.270 
20:35	28.8	28.8	28.8	73	21.3	1	6	270	0.00	30.270 
20:40	28.7	28.7	28.7	73	21.2	2	5	248	0.00	30.270 
20:45	28.7	28.7	28.7	73	21.2	1	5	248	0.00	30.268 
20:50	28.5	28.5	28.5	73	21.0	1	5	248	0.00	30.268 
20:55	28.5	28.5	28.5	73	21.0	1	3	248	0.00	30.268 
21:00	28.5	28.5	28.5	73	21.0	1	5	270	0.00	30.264 
21:05	28.5	28.5	28.5	73	21.0	1	6	270	0.00	30.264 
21:10	28.4	28.4	28.4	73	20.9	2	5	270	0.00	30.264 
21:15	28.4	28.4	28.4	73	20.9	1	3	248	0.00	30.266 
21:20	28.4	28.4	28.4	73	20.9	1	4	248	0.00	30.266 
21:25	28.2	28.2	28.2	73	20.7	1	3	248	0.00	30.266 
21:30	28.2	28.2	28.2	73	20.7	1	4	248	0.00	30.265 
21:35	28.2	28.2	28.2	73	20.7	2	5	270	0.00	30.265 
21:40	28.2	28.2	28.2	73	20.7	1	3	248	0.00	30.265 
21:45	28.1	28.1	28.1	73	20.6	2	6	270	0.00	30.264 
21:50	28.1	28.1	28.1	72	20.3	1	3	270	0.00	30.264 
21:55	28.1	28.1	28.1	72	20.3	1	3	270	0.00	30.264 
22:00	28.1	28.1	28.1	72	20.3	2	4	270	0.00	30.264 
22:05	28.1	28.1	28.1	73	20.6	1	5	270	0.00	30.264 
22:10	28.1	28.1	28.1	73	20.6	1	3	270	0.00	30.264 
22:15	28.1	28.1	28.1	73	20.6	1	4	248	0.00	30.262 
22:20	28.2	28.2	28.2	73	20.7	1	4	248	0.00	30.262 
22:25	28.2	28.2	28.2	73	20.7	1	4	270	0.00	30.262 
22:30	28.2	28.2	28.2	73	20.7	1	5	270	0.00	30.268 
22:35	28.4	28.4	28.4	73	20.9	0	3	270	0.00	30.268 
22:40	28.4	28.4	28.4	74	21.2	1	5	270	0.00	30.268 
22:45	28.4	28.4	28.4	73	20.9	1	4	248	0.00	30.270 
22:50	28.5	28.5	28.5	73	21.0	2	4	248	0.00	30.270 
22:55	28.5	28.5	28.5	73	21.0	2	5	248	0.00	30.270 
23:00	28.5	28.5	28.5	73	21.0	2	5	270	0.00	30.268 
23:05	28.5	28.5	28.5	74	21.3	1	3	292	0.00	30.268 
23:10	28.5	28.5	28.5	74	21.3	1	5	270	0.00	30.268 
23:15	28.5	28.5	28.5	73	21.0	2	4	248	0.00	30.255 
23:20	28.7	28.7	28.7	73	21.2	1	5	248	0.00	30.255 
23:25	28.7	28.7	28.7	74	21.5	1	5	248	0.00	30.255 
23:30	28.5	28.5	28.5	74	21.3	2	4	270	0.00	30.252 
23:35	28.5	28.5	28.5	73	21.0	2	4	270	0.00	30.252 
23:40	28.5	28.5	28.5	73	21.0	2	5	270	0.00	30.252 
23:45	28.5	28.5	28.5	73	21.0	2	5	248	0.00	30.252 
23:50	28.5	28.5	28.5	73	21.0	2	4	248	0.00	30.252 
23:55	28.4	28.4	28.4	73	20.9	2	5	270	0.00	30.252 

CoCoRaHS
IN-AL-39
A2 Web Hosting
Creative Commons License
GoDaddy
search engine by freefind advanced

loaded 2018-11-15 17:50:12 • last modified 2010-11-18 10:43:29
Privacy PolicyDisclaimer
• wx.awcolley.com is powered by PmWiki v.2002016 •
• all content (unless otherwise noted) © 2018 A W Colley